createdAt,value
2022-09-20T00:02:23.745Z,99716.36
2022-09-20T00:07:26.448Z,99720.39
2022-09-20T00:12:29.243Z,99719.66
2022-09-20T00:17:32.251Z,99719.02
2022-09-20T00:22:34.947Z,99726.31
2022-09-20T00:27:37.657Z,99725.98
2022-09-20T00:32:41.297Z,99729.27
2022-09-20T00:37:44.073Z,99730.04
2022-09-20T00:42:48.299Z,99733.68
2022-09-20T00:48:07.932Z,99736.48
2022-09-20T00:53:31.680Z,99730.32
2022-09-20T00:58:40.234Z,99734.23
2022-09-20T01:03:43.555Z,99740.40
2022-09-20T01:08:50.855Z,99746.73
2022-09-20T01:13:53.534Z,99749.98
2022-09-20T01:18:59.031Z,99742.27
2022-09-20T01:24:07.503Z,99741.33
2022-09-20T01:29:28.884Z,99742.70
2022-09-20T01:34:36.440Z,99743.98
2022-09-20T01:39:54.351Z,99748.95
2022-09-20T01:45:09.963Z,99747.69
2022-09-20T01:50:30.363Z,99750.00
2022-09-20T01:56:06.850Z,99742.16
2022-09-20T02:01:50.924Z,99740.85
2022-09-20T02:07:25.588Z,99738.58
2022-09-20T02:12:49.980Z,99741.03
2022-09-20T02:18:14.183Z,99744.45
2022-09-20T02:23:32.140Z,99746.26
2022-09-20T02:28:49.469Z,99749.31
2022-09-20T02:34:01.191Z,99751.63
2022-09-20T02:39:21.501Z,99755.36
2022-09-20T02:44:46.011Z,99759.92
2022-09-20T02:50:00.200Z,99769.25
2022-09-20T02:55:13.955Z,99768.81
2022-09-20T03:00:27.198Z,99766.64
2022-09-20T03:05:32.543Z,99776.57
2022-09-20T03:11:03.305Z,99779.66
2022-09-20T03:16:22.950Z,99781.34
2022-09-20T03:21:37.829Z,99781.72
2022-09-20T03:27:05.373Z,99781.55
2022-09-20T03:32:50.883Z,99788.10
2022-09-20T03:37:53.447Z,99792.24
2022-09-20T03:43:18.184Z,99794.23
2022-09-20T03:48:43.445Z,99799.41
2022-09-20T03:54:01.418Z,99805.90
2022-09-20T03:59:41.669Z,99810.36
2022-09-20T04:04:55.922Z,99808.33
2022-09-20T04:10:14.074Z,99814.48
2022-09-20T04:15:26.070Z,99816.48
2022-09-20T04:20:36.367Z,99822.33
2022-09-20T04:25:44.609Z,99821.14
2022-09-20T04:30:51.792Z,99819.84
2022-09-20T04:36:31.581Z,99814.75
2022-09-20T04:41:59.764Z,99823.67
2022-09-20T04:47:15.468Z,99828.01
2022-09-20T04:52:52.059Z,99830.95
2022-09-20T04:58:25.993Z,99843.03
2022-09-20T05:03:49.899Z,99848.34
2022-09-20T05:09:30.476Z,99860.36
2022-09-20T05:14:45.362Z,99867.25
2022-09-20T05:19:58.713Z,99878.75
2022-09-20T05:25:19.329Z,99883.10
2022-09-20T05:30:28.460Z,99886.63
2022-09-20T05:35:49.184Z,99886.21
2022-09-20T05:41:07.845Z,99896.80
2022-09-20T05:46:22.553Z,99906.23
2022-09-20T05:52:02.337Z,99928.30
2022-09-20T05:57:10.677Z,99946.33
2022-09-20T06:02:22.663Z,99943.98
2022-09-20T06:07:52.602Z,99951.56
2022-09-20T06:13:20.730Z,99955.98
2022-09-20T06:18:58.871Z,99961.58
2022-09-20T06:24:03.332Z,99970.90
2022-09-20T06:29:14.364Z,99979.09
2022-09-20T06:34:19.662Z,99990.64
2022-09-20T06:39:47.181Z,99992.11
2022-09-20T06:44:50.111Z,99994.08
2022-09-20T06:49:53.361Z,99997.80
2022-09-20T06:54:56.972Z,99998.84
2022-09-20T06:59:59.731Z,100001.38
2022-09-20T07:05:04.816Z,100006.08
2022-09-20T07:10:08.045Z,100012.42
2022-09-20T07:15:10.921Z,100008.65
2022-09-20T07:20:14.542Z,100009.29
2022-09-20T07:25:20.867Z,100015.66
2022-09-20T07:30:24.214Z,100019.21
2022-09-20T07:35:26.933Z,100021.59
2022-09-20T07:40:29.831Z,100030.96
2022-09-20T07:45:35.207Z,100045.14
2022-09-20T07:50:37.928Z,100051.33
2022-09-20T07:55:40.557Z,100064.90
2022-09-20T08:00:43.194Z,100073.62
2022-09-20T08:05:45.850Z,100078.06
2022-09-20T08:10:48.569Z,100080.16
2022-09-20T08:15:51.337Z,100084.35
2022-09-20T08:20:55.535Z,100090.27
2022-09-20T08:25:58.298Z,100097.81
2022-09-20T08:31:11.212Z,100094.42
2022-09-20T08:36:22.971Z,100099.95
2022-09-20T08:41:43.885Z,100100.52
2022-09-20T08:46:50.861Z,100108.59
2022-09-20T08:51:54.828Z,100110.25
2022-09-20T08:56:58.747Z,100113.23
2022-09-20T09:02:01.558Z,100114.45
2022-09-20T09:07:04.862Z,100113.46
2022-09-20T09:12:18.202Z,100119.80
2022-09-20T09:17:29.203Z,100121.86
2022-09-20T09:22:41.398Z,100117.86
2022-09-20T09:27:53.434Z,100122.08
2022-09-20T09:33:15.549Z,100114.31
2022-09-20T09:38:24.187Z,100111.56
2022-09-20T09:43:32.464Z,100114.41
2022-09-20T09:48:38.506Z,100113.36
2022-09-20T09:53:44.442Z,100110.65
2022-09-20T09:59:12.619Z,100114.48
2022-09-20T10:04:33.221Z,100112.35
2022-09-20T10:10:12.503Z,100120.54
2022-09-20T10:15:39.933Z,100120.12
2022-09-20T10:21:19.817Z,100117.98
2022-09-20T10:26:36.934Z,100113.51
2022-09-20T10:31:57.894Z,100114.45
2022-09-20T10:37:02.133Z,100122.05
2022-09-20T10:42:27.625Z,100130.15
2022-09-20T10:48:12.436Z,100136.95
2022-09-20T10:53:21.205Z,100144.80
2022-09-20T10:58:46.026Z,100146.66
2022-09-20T11:03:51.656Z,100155.85
2022-09-20T11:09:04.579Z,100156.20
2022-09-20T11:14:37.998Z,100155.60
2022-09-20T11:19:47.727Z,100153.09
2022-09-20T11:25:10.761Z,100159.71
2022-09-20T11:30:21.988Z,100166.22
2022-09-20T11:35:35.614Z,100171.30
2022-09-20T11:40:49.496Z,100173.89
2022-09-20T11:45:57.435Z,100179.61
2022-09-20T11:51:33.070Z,100183.68
2022-09-20T11:56:35.824Z,100177.68
2022-09-20T12:01:44.266Z,100182.79
2022-09-20T12:06:48.019Z,100186.98
2022-09-20T12:11:52.582Z,100184.55
2022-09-20T12:16:56.518Z,100184.51
2022-09-20T12:21:59.580Z,100184.94
2022-09-20T12:27:44.103Z,100192.02
2022-09-20T12:32:58.314Z,100196.15
2022-09-20T12:38:40.321Z,100192.87
2022-09-20T12:43:55.236Z,100197.93
2022-09-20T12:49:46.432Z,100201.34
2022-09-20T12:54:56.315Z,100204.89
2022-09-20T13:00:15.486Z,100205.16
2022-09-20T13:05:38.589Z,100205.91
2022-09-20T13:11:05.211Z,100211.25
2022-09-20T13:16:23.757Z,100208.78
2022-09-20T13:21:28.789Z,100204.71
2022-09-20T13:26:40.758Z,100209.83
2022-09-20T13:31:44.160Z,100223.20
2022-09-20T13:36:56.207Z,100222.84
2022-09-20T13:42:02.590Z,100229.40
2022-09-20T13:47:43.154Z,100236.05
2022-09-20T13:53:39.399Z,100240.50
2022-09-20T13:58:39.775Z,100234.48
2022-09-20T14:03:44.544Z,100234.17
2022-09-20T14:08:51.624Z,100237.13
2022-09-20T14:13:58.350Z,100234.98
2022-09-20T14:19:03.383Z,100244.92
2022-09-20T14:24:37.245Z,100249.92
2022-09-20T14:29:43.412Z,100260.20
2022-09-20T14:35:00.964Z,100260.11
2022-09-20T14:40:16.643Z,100262.27
2022-09-20T14:45:24.624Z,100262.02
2022-09-20T14:50:31.870Z,100263.83
2022-09-20T14:55:37.586Z,100265.77
2022-09-20T15:01:03.257Z,100264.98
2022-09-20T15:06:10.406Z,100268.73
2022-09-20T15:11:17.756Z,100275.50
2022-09-20T15:16:20.542Z,100281.39
2022-09-20T15:21:24.302Z,100279.16
2022-09-20T15:26:27.424Z,100278.65
2022-09-20T15:31:29.997Z,100280.88
2022-09-20T15:36:32.720Z,100287.60
2022-09-20T15:41:36.039Z,100289.52
2022-09-20T15:46:38.919Z,100298.52
2022-09-20T15:51:41.493Z,100302.92
2022-09-20T15:56:44.169Z,100305.08
2022-09-20T16:01:48.286Z,100314.70
2022-09-20T16:06:51.450Z,100312.46
2022-09-20T16:11:58.855Z,100313.65
2022-09-20T16:17:01.608Z,100320.86
2022-09-20T16:22:04.955Z,100324.43
2022-09-20T16:27:14.710Z,100332.85
2022-09-20T16:32:17.978Z,100333.92
2022-09-20T16:37:22.606Z,100338.17
2022-09-20T16:42:25.326Z,100338.54
2022-09-20T16:47:27.975Z,100342.92
2022-09-20T16:52:30.670Z,100349.89
2022-09-20T16:57:33.375Z,100351.20
2022-09-20T17:02:36.373Z,100362.34
2022-09-20T17:07:39.075Z,100370.80
2022-09-20T17:12:42.515Z,100373.55
2022-09-20T17:17:45.805Z,100379.48
2022-09-20T17:22:49.130Z,100381.00
2022-09-20T17:27:51.813Z,100383.92
2022-09-20T17:32:55.126Z,100393.42
2022-09-20T17:37:57.800Z,100387.36
2022-09-20T17:43:00.468Z,100389.90
2022-09-20T17:48:04.142Z,100389.48
2022-09-20T17:53:07.244Z,100394.95
2022-09-20T17:58:09.755Z,100400.81
2022-09-20T18:03:12.445Z,100408.19
2022-09-20T18:08:16.015Z,100405.11
2022-09-20T18:13:18.763Z,100407.88
2022-09-20T18:18:21.996Z,100401.89
2022-09-20T18:23:24.687Z,100401.47
2022-09-20T18:28:27.476Z,100400.58
2022-09-20T18:33:31.551Z,100401.59
2022-09-20T18:38:34.242Z,100396.34
2022-09-20T18:43:37.024Z,100402.18
2022-09-20T18:48:40.317Z,100407.43
2022-09-20T18:53:42.986Z,100405.66
2022-09-20T18:58:46.026Z,100401.41
2022-09-20T19:04:07.463Z,100405.59
2022-09-20T19:09:43.470Z,100408.94
2022-09-20T19:15:10.924Z,100413.19
2022-09-20T19:20:25.561Z,100416.96
2022-09-20T19:25:40.826Z,100414.77
2022-09-20T19:30:45.641Z,100413.02
2022-09-20T19:35:50.390Z,100409.59
2022-09-20T19:41:05.170Z,100401.88
2022-09-20T19:46:31.624Z,100404.70
2022-09-20T19:51:37.800Z,100402.27
2022-09-20T19:56:53.154Z,100410.85
2022-09-20T20:01:56.597Z,100415.13
2022-09-20T20:07:06.177Z,100422.33
2022-09-20T20:12:20.577Z,100427.33
2022-09-20T20:17:32.573Z,100428.31
2022-09-20T20:22:47.141Z,100430.80
2022-09-20T20:27:49.782Z,100432.58
2022-09-20T20:32:58.195Z,100431.29
2022-09-20T20:38:00.857Z,100432.27
2022-09-20T20:43:06.192Z,100439.17
2022-09-20T20:48:08.828Z,100440.14
2022-09-20T20:53:11.473Z,100443.96
2022-09-20T20:58:14.090Z,100445.73
2022-09-20T21:03:16.720Z,100455.67
2022-09-20T21:08:19.423Z,100451.72
2022-09-20T21:13:22.426Z,100453.70
2022-09-20T21:18:25.111Z,100447.38
2022-09-20T21:23:27.868Z,100448.45
2022-09-20T21:28:30.931Z,100450.70
2022-09-20T21:33:35.571Z,100452.54
2022-09-20T21:38:39.766Z,100457.79
2022-09-20T21:43:44.878Z,100456.92
2022-09-20T21:48:49.097Z,100462.36
2022-09-20T21:53:54.317Z,100465.55
2022-09-20T21:58:58.198Z,100468.27
2022-09-20T22:04:05.132Z,100464.61
2022-09-20T22:09:13.881Z,100466.55
2022-09-20T22:14:19.498Z,100468.49
2022-09-20T22:19:22.386Z,100469.11
2022-09-20T22:24:25.202Z,100470.83
2022-09-20T22:29:27.888Z,100469.66
2022-09-20T22:34:30.540Z,100468.28
2022-09-20T22:39:33.287Z,100475.62
2022-09-20T22:44:36.089Z,100483.91
2022-09-20T22:49:38.804Z,100482.64
2022-09-20T22:54:46.617Z,100489.00
2022-09-20T22:59:49.253Z,100485.52
2022-09-20T23:04:51.923Z,100478.88
2022-09-20T23:09:54.554Z,100486.27
2022-09-20T23:14:57.197Z,100487.42
2022-09-20T23:19:59.845Z,100489.84
2022-09-20T23:25:02.599Z,100493.28
2022-09-20T23:30:06.215Z,100491.33
2022-09-20T23:35:09.118Z,100491.75
2022-09-20T23:40:11.847Z,100484.73
2022-09-20T23:45:15.026Z,100488.48
2022-09-20T23:50:17.673Z,100494.88
2022-09-20T23:55:20.426Z,100497.14
